Time;durP1;ratioP1;P1;durP2;ratioP2;P2;SDS_P1;SDS_P2;PMS_P1;PMS_P2;Temp;Humidity;BMP_temperature;BMP_pressure;BME280_temperature;BME280_humidity;BME280_pressure;Samples;Min_cycle;Max_cycle;Signal;HPM_P1;HPM_P2
2021/03/06 00:00:29;;;;;;;42.20;35.20;;;;;;;;;;5033284;28;20377;-83
2021/03/06 00:02:55;;;;;;;40.70;34.37;;;;;;;;;;5031655;28;20474;-81
2021/03/06 00:05:25;;;;;;;42.35;35.33;;;;;;;;;;5032632;28;20468;-85
2021/03/06 00:07:51;;;;;;;41.25;35.15;;;;;;;;;;5033039;28;20381;-83
2021/03/06 00:10:18;;;;;;;41.77;34.63;;;;;;;;;;5032983;28;20369;-81
2021/03/06 00:12:45;;;;;;;39.55;33.03;;;;;;;;;;5033775;28;20443;-83
2021/03/06 00:15:12;;;;;;;39.80;32.93;;;;;;;;;;5038443;28;20412;-83
2021/03/06 00:17:38;;;;;;;36.78;30.98;;;;;;;;;;5041196;28;20977;-83
2021/03/06 00:20:05;;;;;;;37.15;31.38;;;;;;;;;;5040471;28;20449;-80
2021/03/06 00:22:31;;;;;;;38.30;31.35;;;;;;;;;;5038402;28;20890;-83
2021/03/06 00:24:57;;;;;;;35.63;29.75;;;;;;;;;;5032941;28;20412;-84
2021/03/06 00:27:23;;;;;;;33.92;29.50;;;;;;;;;;5031446;28;20396;-84
2021/03/06 00:29:49;;;;;;;34.03;29.43;;;;;;;;;;5032293;28;20389;-82
2021/03/06 00:32:15;;;;;;;35.33;28.05;;;;;;;;;;5032588;28;20397;-85
2021/03/06 00:34:41;;;;;;;35.58;29.48;;;;;;;;;;5032377;28;20447;-81
2021/03/06 00:37:07;;;;;;;32.03;26.77;;;;;;;;;;5032339;28;20457;-86
2021/03/06 00:39:33;;;;;;;29.95;25.88;;;;;;;;;;5031191;28;20744;-81
2021/03/06 00:41:59;;;;;;;29.23;22.77;;;;;;;;;;5031083;28;20392;-81
2021/03/06 00:44:25;;;;;;;29.90;24.40;;;;;;;;;;5032705;28;20365;-86
2021/03/06 00:46:51;;;;;;;25.95;20.30;;;;;;;;;;5030895;28;20412;-84
2021/03/06 00:49:21;;;;;;;27.30;21.65;;;;;;;;;;5031320;28;20448;-83
2021/03/06 00:51:47;;;;;;;29.08;23.85;;;;;;;;;;5031703;28;20377;-82
2021/03/06 00:54:13;;;;;;;32.50;25.50;;;;;;;;;;5031616;28;20790;-81
2021/03/06 00:56:39;;;;;;;29.10;23.80;;;;;;;;;;5032137;28;20373;-80
2021/03/06 00:59:05;;;;;;;30.35;25.40;;;;;;;;;;5032063;28;20451;-82
2021/03/06 01:01:31;;;;;;;30.33;24.03;;;;;;;;;;5031405;28;20406;-85
2021/03/06 01:03:58;;;;;;;28.08;23.77;;;;;;;;;;5031983;28;20405;-84
2021/03/06 01:06:24;;;;;;;30.85;23.77;;;;;;;;;;5031900;28;20408;-81
2021/03/06 01:08:50;;;;;;;27.88;22.45;;;;;;;;;;5030993;28;20393;-81
2021/03/06 01:11:16;;;;;;;27.13;23.52;;;;;;;;;;5030489;28;20398;-83
2021/03/06 01:13:42;;;;;;;28.10;23.40;;;;;;;;;;5032547;28;20427;-83
2021/03/06 01:16:08;;;;;;;30.50;24.23;;;;;;;;;;5032320;28;20405;-82
2021/03/06 01:18:34;;;;;;;29.48;24.95;;;;;;;;;;5030435;28;20713;-84
2021/03/06 01:21:00;;;;;;;27.70;22.73;;;;;;;;;;5031395;28;20380;-85
2021/03/06 01:23:26;;;;;;;28.70;20.27;;;;;;;;;;5032051;28;20362;-83
2021/03/06 01:25:54;;;;;;;28.80;22.63;;;;;;;;;;5030181;28;20441;-82
2021/03/06 01:28:20;;;;;;;28.85;23.25;;;;;;;;;;5030223;28;20373;-79
2021/03/06 01:30:46;;;;;;;27.67;22.17;;;;;;;;;;5031494;28;20378;-81
2021/03/06 01:33:12;;;;;;;26.52;21.05;;;;;;;;;;5029980;28;20369;-83
2021/03/06 01:35:38;;;;;;;25.27;20.95;;;;;;;;;;5030374;28;20406;-84
2021/03/06 01:38:04;;;;;;;24.73;19.65;;;;;;;;;;5030062;28;20728;-83
2021/03/06 01:40:34;;;;;;;24.08;19.42;;;;;;;;;;5031220;28;20389;-84
2021/03/06 01:43:02;;;;;;;20.90;17.25;;;;;;;;;;5029746;28;20384;-81
2021/03/06 01:45:28;;;;;;;21.08;17.65;;;;;;;;;;5031086;28;20416;-83
2021/03/06 01:47:54;;;;;;;20.10;16.47;;;;;;;;;;5031291;28;20369;-85
2021/03/06 01:50:22;;;;;;;18.88;15.05;;;;;;;;;;5031038;28;20404;-84
2021/03/06 01:52:48;;;;;;;23.20;18.85;;;;;;;;;;5029886;28;20386;-81
2021/03/06 01:55:16;;;;;;;17.70;14.43;;;;;;;;;;5030957;28;20779;-83
2021/03/06 01:57:43;;;;;;;19.53;14.57;;;;;;;;;;5029451;28;20432;-83
2021/03/06 02:00:09;;;;;;;17.77;14.10;;;;;;;;;;5030029;28;20404;-82
2021/03/06 02:02:35;;;;;;;19.27;16.10;;;;;;;;;;5029523;28;20393;-84
2021/03/06 02:05:01;;;;;;;19.40;15.48;;;;;;;;;;5030779;28;20432;-81
2021/03/06 02:07:27;;;;;;;18.77;16.07;;;;;;;;;;5029001;28;20389;-84
2021/03/06 02:09:53;;;;;;;17.10;14.10;;;;;;;;;;5030216;28;20384;-81
2021/03/06 02:12:28;;;;;;;18.52;14.90;;;;;;;;;;5030533;28;20388;-83
2021/03/06 02:15:06;;;;;;;21.08;14.52;;;;;;;;;;5031184;28;20942;-84
2021/03/06 02:17:38;;;;;;;16.88;13.45;;;;;;;;;;5030912;28;20740;-82
2021/03/06 02:20:23;;;;;;;18.58;14.65;;;;;;;;;;5028936;28;20386;-84
2021/03/06 02:23:08;;;;;;;16.17;13.50;;;;;;;;;;5028788;28;20883;-82
2021/03/06 02:25:44;;;;;;;16.95;13.68;;;;;;;;;;5030136;28;20485;-83
2021/03/06 02:28:19;;;;;;;16.33;12.87;;;;;;;;;;5028879;28;20453;-82
2021/03/06 02:30:48;;;;;;;19.15;14.25;;;;;;;;;;5029765;28;20377;-83
2021/03/06 02:33:14;;;;;;;19.35;14.77;;;;;;;;;;5028655;28;20381;-85
2021/03/06 02:35:42;;;;;;;19.75;13.80;;;;;;;;;;5030100;28;20386;-84
2021/03/06 02:38:10;;;;;;;15.25;12.23;;;;;;;;;;5031725;28;20469;-81
2021/03/06 02:40:37;;;;;;;16.13;13.33;;;;;;;;;;5030724;28;20385;-82
2021/03/06 02:43:03;;;;;;;15.80;11.97;;;;;;;;;;5029747;28;20871;-83
2021/03/06 02:45:29;;;;;;;14.07;11.70;;;;;;;;;;5034276;28;20448;-82
2021/03/06 02:47:57;;;;;;;14.57;11.32;;;;;;;;;;5028368;28;20389;-81
2021/03/06 02:50:23;;;;;;;11.60;9.50;;;;;;;;;;5030002;28;20765;-84
2021/03/06 02:52:49;;;;;;;14.52;10.68;;;;;;;;;;5029823;28;20376;-85
2021/03/06 02:55:15;;;;;;;13.00;11.40;;;;;;;;;;5029728;28;20381;-82
2021/03/06 02:57:46;;;;;;;14.15;11.20;;;;;;;;;;5029740;28;20369;-85
2021/03/06 03:00:13;;;;;;;14.20;11.27;;;;;;;;;;5028122;28;20736;-82
2021/03/06 03:02:54;;;;;;;11.85;9.85;;;;;;;;;;5028052;28;20791;-84
2021/03/06 03:05:28;;;;;;;11.73;9.75;;;;;;;;;;5029363;28;20491;-85
2021/03/06 03:08:00;;;;;;;12.27;10.05;;;;;;;;;;5029354;28;20416;-82
2021/03/06 03:10:26;;;;;;;13.23;10.82;;;;;;;;;;5027786;28;20394;-80
2021/03/06 03:13:07;;;;;;;12.27;9.45;;;;;;;;;;5030835;28;20401;-82
2021/03/06 03:15:37;;;;;;;12.98;8.77;;;;;;;;;;5031756;28;20380;-83
2021/03/06 03:18:04;;;;;;;11.80;9.82;;;;;;;;;;5032152;28;20426;-83
2021/03/06 03:20:35;;;;;;;10.97;9.80;;;;;;;;;;5041655;28;20381;-81
2021/03/06 03:23:04;;;;;;;12.43;9.98;;;;;;;;;;5039425;28;20427;-80
2021/03/06 03:25:31;;;;;;;12.35;10.50;;;;;;;;;;5039209;28;20511;-80
2021/03/06 03:27:57;;;;;;;12.82;10.00;;;;;;;;;;5032776;28;20466;-83
2021/03/06 03:30:23;;;;;;;11.60;9.57;;;;;;;;;;5029024;28;21323;-81
2021/03/06 03:32:50;;;;;;;13.15;9.63;;;;;;;;;;5028950;28;20369;-83
2021/03/06 03:35:18;;;;;;;14.02;9.88;;;;;;;;;;5027801;28;20381;-84
2021/03/06 03:37:45;;;;;;;9.98;8.98;;;;;;;;;;5028889;28;20373;-85
2021/03/06 03:40:15;;;;;;;12.20;9.90;;;;;;;;;;5027755;28;20403;-84
2021/03/06 03:42:42;;;;;;;14.43;9.73;;;;;;;;;;5027626;28;20378;-82
2021/03/06 03:45:09;;;;;;;12.00;10.30;;;;;;;;;;5027973;28;20794;-81
2021/03/06 03:47:36;;;;;;;13.35;10.30;;;;;;;;;;5028381;28;20947;-82
2021/03/06 03:50:03;;;;;;;14.07;9.95;;;;;;;;;;5035324;28;20790;-82
2021/03/06 03:52:29;;;;;;;12.43;10.30;;;;;;;;;;5036682;28;20378;-81
2021/03/06 03:54:55;;;;;;;12.15;10.13;;;;;;;;;;5037174;28;20391;-80
2021/03/06 03:57:21;;;;;;;12.40;9.10;;;;;;;;;;5031720;28;20457;-80
2021/03/06 03:59:47;;;;;;;12.07;9.60;;;;;;;;;;5028727;28;20373;-84
2021/03/06 04:02:21;;;;;;;14.23;9.20;;;;;;;;;;5029155;28;20431;-80
2021/03/06 04:04:47;;;;;;;12.50;9.73;;;;;;;;;;5027628;28;20437;-82
2021/03/06 04:07:13;;;;;;;14.60;9.55;;;;;;;;;;5028646;28;20393;-83
2021/03/06 04:09:39;;;;;;;12.20;9.40;;;;;;;;;;5028975;28;20546;-82
2021/03/06 04:12:05;;;;;;;11.55;9.07;;;;;;;;;;5028960;28;20891;-82
2021/03/06 04:14:31;;;;;;;12.00;9.40;;;;;;;;;;5028943;28;20400;-86
2021/03/06 04:16:57;;;;;;;13.47;10.33;;;;;;;;;;5028991;28;20381;-81
2021/03/06 04:19:23;;;;;;;12.90;10.02;;;;;;;;;;5027480;28;20778;-81
2021/03/06 04:21:49;;;;;;;11.85;9.57;;;;;;;;;;5027738;28;20373;-86
2021/03/06 04:24:15;;;;;;;12.13;9.70;;;;;;;;;;5031318;28;20397;-86
2021/03/06 04:26:41;;;;;;;10.98;9.25;;;;;;;;;;5031260;28;20354;-81
2021/03/06 04:29:07;;;;;;;12.13;9.43;;;;;;;;;;5032176;28;20804;-85
2021/03/06 04:31:33;;;;;;;10.73;8.18;;;;;;;;;;5030468;28;20775;-82
2021/03/06 04:34:01;;;;;;;10.85;8.25;;;;;;;;;;5030430;28;20397;-82
2021/03/06 04:36:27;;;;;;;9.90;7.90;;;;;;;;;;5032065;28;20378;-81
2021/03/06 04:38:53;;;;;;;10.15;7.68;;;;;;;;;;5032243;28;20388;-82
2021/03/06 04:41:18;;;;;;;9.98;7.80;;;;;;;;;;5032180;28;20466;-84
2021/03/06 04:43:44;;;;;;;12.05;8.48;;;;;;;;;;5032329;28;20697;-82
2021/03/06 04:46:10;;;;;;;10.25;8.75;;;;;;;;;;5032319;28;21245;-82
2021/03/06 04:48:36;;;;;;;12.38;8.65;;;;;;;;;;5030756;28;20370;-81
2021/03/06 04:51:03;;;;;;;12.10;8.68;;;;;;;;;;5031810;28;20986;-80
2021/03/06 04:53:29;;;;;;;12.00;7.95;;;;;;;;;;5032293;28;20370;-81
2021/03/06 04:55:55;;;;;;;12.25;8.57;;;;;;;;;;5031767;28;20459;-83
2021/03/06 04:58:21;;;;;;;12.52;8.68;;;;;;;;;;5032029;28;20424;-83
2021/03/06 05:00:47;;;;;;;12.50;9.02;;;;;;;;;;5034246;28;20807;-80
2021/03/06 05:03:13;;;;;;;11.13;8.60;;;;;;;;;;5032780;28;20393;-86
2021/03/06 05:05:39;;;;;;;10.90;8.27;;;;;;;;;;5030499;28;20413;-81
2021/03/06 05:08:05;;;;;;;12.15;8.45;;;;;;;;;;5032039;28;20369;-81
2021/03/06 05:10:31;;;;;;;13.37;8.83;;;;;;;;;;5030497;28;20830;-85
2021/03/06 05:12:57;;;;;;;11.95;8.50;;;;;;;;;;5030392;28;20421;-86
2021/03/06 05:15:23;;;;;;;13.85;8.27;;;;;;;;;;5031816;28;20374;-82
2021/03/06 05:17:49;;;;;;;11.20;8.23;;;;;;;;;;5030596;28;20689;-83
2021/03/06 05:20:15;;;;;;;11.43;8.68;;;;;;;;;;5031929;28;20366;-82
2021/03/06 05:22:41;;;;;;;10.48;8.75;;;;;;;;;;5032914;28;20365;-82
2021/03/06 05:25:07;;;;;;;11.57;8.77;;;;;;;;;;5031343;28;20412;-83
2021/03/06 05:27:33;;;;;;;12.30;9.07;;;;;;;;;;5032745;28;20381;-86
2021/03/06 05:30:00;;;;;;;12.38;9.07;;;;;;;;;;5031187;28;20389;-84
2021/03/06 05:32:26;;;;;;;12.50;8.70;;;;;;;;;;5030709;28;20377;-83
2021/03/06 05:34:52;;;;;;;12.07;8.60;;;;;;;;;;5030754;28;20382;-84
2021/03/06 05:37:18;;;;;;;10.40;8.45;;;;;;;;;;5031234;28;20381;-83
2021/03/06 05:39:44;;;;;;;10.50;8.35;;;;;;;;;;5030568;28;20393;-86
2021/03/06 05:42:11;;;;;;;9.38;8.20;;;;;;;;;;5029534;28;20388;-86
2021/03/06 05:44:38;;;;;;;10.60;7.50;;;;;;;;;;5029033;28;20523;-84
2021/03/06 05:47:04;;;;;;;9.40;7.90;;;;;;;;;;5029494;28;20374;-86
2021/03/06 05:49:30;;;;;;;11.30;7.97;;;;;;;;;;5031085;28;20369;-80
2021/03/06 05:51:57;;;;;;;11.27;7.95;;;;;;;;;;5031703;28;20874;-83
2021/03/06 05:54:27;;;;;;;9.93;7.47;;;;;;;;;;5029406;28;20748;-82
2021/03/06 05:56:53;;;;;;;8.80;7.07;;;;;;;;;;5029209;28;20625;-86
2021/03/06 05:59:20;;;;;;;10.70;8.20;;;;;;;;;;5029123;28;20435;-81
2021/03/06 06:01:47;;;;;;;9.20;7.55;;;;;;;;;;5029207;28;20400;-83
2021/03/06 06:04:14;;;;;;;9.27;6.82;;;;;;;;;;5030044;28;20366;-83
2021/03/06 06:06:40;;;;;;;9.15;7.45;;;;;;;;;;5029286;28;20443;-86
2021/03/06 06:09:07;;;;;;;9.52;7.47;;;;;;;;;;5033974;28;20480;-86
2021/03/06 06:11:33;;;;;;;10.50;7.22;;;;;;;;;;5029038;28;20709;-84
2021/03/06 06:14:00;;;;;;;11.82;7.88;;;;;;;;;;5029606;28;20390;-82
2021/03/06 06:16:30;;;;;;;13.65;8.25;;;;;;;;;;5029947;28;20370;-84
2021/03/06 06:18:56;;;;;;;12.57;7.80;;;;;;;;;;5031963;28;20417;-84
2021/03/06 06:21:37;;;;;;;9.43;7.47;;;;;;;;;;5031435;28;20369;-80
2021/03/06 06:24:04;;;;;;;10.82;7.68;;;;;;;;;;5031031;28;20373;-82
2021/03/06 06:26:30;;;;;;;10.10;7.57;;;;;;;;;;5029376;28;20445;-81
2021/03/06 06:28:56;;;;;;;9.70;7.38;;;;;;;;;;5030540;28;20392;-80
2021/03/06 06:31:22;;;;;;;9.15;7.65;;;;;;;;;;5030201;28;20453;-80
2021/03/06 06:33:48;;;;;;;10.50;7.60;;;;;;;;;;5033169;28;20948;-82
2021/03/06 06:36:40;;;;;;;9.05;7.05;;;;;;;;;;5039838;28;20377;-81
2021/03/06 06:39:07;;;;;;;9.18;6.90;;;;;;;;;;5032487;28;20625;-80
2021/03/06 06:41:53;;;;;;;9.07;6.85;;;;;;;;;;5048284;28;20372;-84
2021/03/06 06:44:19;;;;;;;8.45;6.47;;;;;;;;;;5051217;28;20379;-85
2021/03/06 06:46:45;;;;;;;11.00;6.28;;;;;;;;;;5049109;28;20403;-82
2021/03/06 06:49:12;;;;;;;13.70;6.80;;;;;;;;;;5049310;28;20407;-82
2021/03/06 06:51:40;;;;;;;8.20;5.35;;;;;;;;;;5049963;28;20376;-85
2021/03/06 06:54:15;;;;;;;7.43;5.53;;;;;;;;;;5030566;28;20381;-84
2021/03/06 06:56:41;;;;;;;9.80;5.63;;;;;;;;;;5029582;28;20380;-81
2021/03/06 06:59:11;;;;;;;10.13;5.45;;;;;;;;;;5028787;28;20369;-83
2021/03/06 07:01:37;;;;;;;9.30;4.93;;;;;;;;;;5029871;28;20370;-84
2021/03/06 07:04:10;;;;;;;9.48;5.55;;;;;;;;;;5034422;28;20807;-82
2021/03/06 07:06:37;;;;;;;11.67;7.60;;;;;;;;;;5020789;28;20482;-87
2021/03/06 07:09:10;;;;;;;9.20;6.20;;;;;;;;;;5029361;28;20478;-82
2021/03/06 07:11:36;;;;;;;10.82;5.60;;;;;;;;;;5029733;28;20781;-86
2021/03/06 07:14:03;;;;;;;8.52;5.32;;;;;;;;;;5022450;28;20389;-85
2021/03/06 07:16:47;;;;;;;7.30;4.57;;;;;;;;;;5017453;28;20385;-82
2021/03/06 07:19:13;;;;;;;8.52;4.82;;;;;;;;;;5018923;28;20738;-86
2021/03/06 07:21:49;;;;;;;9.73;5.50;;;;;;;;;;5035555;28;20379;-83
2021/03/06 07:24:15;;;;;;;11.20;5.50;;;;;;;;;;5034074;28;20441;-85
2021/03/06 07:26:42;;;;;;;8.77;4.83;;;;;;;;;;5048665;28;20428;-82
2021/03/06 07:29:08;;;;;;;8.48;4.80;;;;;;;;;;5061703;28;20813;-81
2021/03/06 07:31:36;;;;;;;8.40;4.68;;;;;;;;;;5058107;28;20869;-85
2021/03/06 07:34:03;;;;;;;11.45;4.63;;;;;;;;;;5030514;28;20381;-83
2021/03/06 07:36:29;;;;;;;9.02;5.20;;;;;;;;;;5027666;28;20531;-84
2021/03/06 07:38:55;;;;;;;10.00;4.60;;;;;;;;;;5025380;28;20412;-84
2021/03/06 07:41:23;;;;;;;9.98;5.00;;;;;;;;;;5036703;28;20397;-84
2021/03/06 07:43:52;;;;;;;9.43;4.40;;;;;;;;;;5033676;28;20475;-82
2021/03/06 07:46:18;;;;;;;10.10;5.03;;;;;;;;;;5022624;28;20429;-85
2021/03/06 07:48:48;;;;;;;11.60;5.25;;;;;;;;;;5028895;28;20879;-82
2021/03/06 07:51:15;;;;;;;9.68;5.10;;;;;;;;;;5028478;28;20397;-85
2021/03/06 07:53:45;;;;;;;10.60;4.90;;;;;;;;;;5028419;28;20388;-86
2021/03/06 07:56:11;;;;;;;9.57;5.10;;;;;;;;;;5026674;28;20397;-82
2021/03/06 07:58:51;;;;;;;10.15;5.20;;;;;;;;;;5032557;28;20467;-82
2021/03/06 08:01:30;;;;;;;11.95;5.30;;;;;;;;;;5030583;28;20417;-83
2021/03/06 08:03:56;;;;;;;8.45;4.65;;;;;;;;;;5031546;28;20914;-82
2021/03/06 08:06:23;;;;;;;8.57;4.72;;;;;;;;;;5031534;28;20408;-82
2021/03/06 08:08:53;;;;;;;10.25;5.18;;;;;;;;;;5032779;28;20381;-84
2021/03/06 08:11:19;;;;;;;10.07;4.93;;;;;;;;;;5031500;28;20381;-84
2021/03/06 08:13:47;;;;;;;9.32;4.70;;;;;;;;;;5031471;28;20389;-86
2021/03/06 08:16:22;;;;;;;8.75;4.80;;;;;;;;;;5031723;28;20373;-87
2021/03/06 08:18:58;;;;;;;9.40;4.45;;;;;;;;;;5041464;28;20387;-85
2021/03/06 08:21:29;;;;;;;9.85;4.85;;;;;;;;;;5031444;28;20374;-84
2021/03/06 08:26:40;;;;;;;9.70;4.70;;;;;;;;;;5031816;28;20398;-84
2021/03/06 08:29:38;;;;;;;9.00;4.72;;;;;;;;;;5031417;28;20396;-83
2021/03/06 08:32:05;;;;;;;11.18;4.78;;;;;;;;;;5009543;28;20366;-85
2021/03/06 08:34:31;;;;;;;11.40;4.97;;;;;;;;;;5030904;28;20385;-83
2021/03/06 08:37:30;;;;;;;11.98;4.68;;;;;;;;;;5031051;28;20399;-83
2021/03/06 08:39:59;;;;;;;10.60;4.88;;;;;;;;;;5008474;28;20440;-84
2021/03/06 08:42:26;;;;;;;7.63;4.20;;;;;;;;;;5030420;28;20733;-84
2021/03/06 08:44:55;;;;;;;9.67;4.73;;;;;;;;;;5032180;28;21197;-86
2021/03/06 08:47:24;;;;;;;10.75;4.13;;;;;;;;;;5028606;28;20386;-85
2021/03/06 08:49:53;;;;;;;10.65;4.22;;;;;;;;;;5030681;28;20390;-85
2021/03/06 08:52:19;;;;;;;11.48;4.18;;;;;;;;;;5030594;28;20392;-83
2021/03/06 08:54:45;;;;;;;8.43;3.97;;;;;;;;;;5029542;28;20444;-82
2021/03/06 08:57:23;;;;;;;13.98;4.38;;;;;;;;;;5030851;28;20413;-84
2021/03/06 08:59:50;;;;;;;9.73;4.17;;;;;;;;;;5026535;28;20393;-83
2021/03/06 09:02:16;;;;;;;9.75;3.92;;;;;;;;;;5030380;28;20382;-84
2021/03/06 09:04:43;;;;;;;10.75;5.68;;;;;;;;;;5028891;28;20463;-84
2021/03/06 09:07:12;;;;;;;9.17;4.50;;;;;;;;;;5031582;28;20422;-85
2021/03/06 09:09:38;;;;;;;11.13;4.72;;;;;;;;;;5029170;28;20381;-85
2021/03/06 09:12:04;;;;;;;7.93;4.43;;;;;;;;;;5030402;28;20755;-85
2021/03/06 09:14:31;;;;;;;9.18;4.72;;;;;;;;;;5030960;28;20855;-84
2021/03/06 09:16:57;;;;;;;12.95;4.50;;;;;;;;;;5032411;28;20388;-82
2021/03/06 09:19:29;;;;;;;7.80;4.03;;;;;;;;;;5035012;28;20720;-82
2021/03/06 09:22:00;;;;;;;9.45;4.45;;;;;;;;;;5033042;28;20740;-86
2021/03/06 09:24:41;;;;;;;10.10;4.35;;;;;;;;;;5031256;28;20381;-84
2021/03/06 09:27:07;;;;;;;10.33;4.20;;;;;;;;;;5032208;28;20883;-82
2021/03/06 09:29:33;;;;;;;8.90;4.25;;;;;;;;;;5031330;28;20390;-84
2021/03/06 09:31:59;;;;;;;10.00;4.25;;;;;;;;;;5031265;28;20385;-84
2021/03/06 09:34:28;;;;;;;8.48;4.70;;;;;;;;;;5029632;28;20397;-85
2021/03/06 09:36:55;;;;;;;10.40;4.93;;;;;;;;;;5021322;28;20484;-83
2021/03/06 09:39:24;;;;;;;11.73;5.10;;;;;;;;;;5030249;28;20436;-84
2021/03/06 09:41:50;;;;;;;10.93;4.60;;;;;;;;;;5030830;28;20398;-84
2021/03/06 09:44:17;;;;;;;10.02;4.05;;;;;;;;;;5031305;28;20914;-85
2021/03/06 09:46:44;;;;;;;11.15;4.47;;;;;;;;;;5031162;28;20929;-84
2021/03/06 09:49:14;;;;;;;9.90;4.30;;;;;;;;;;5029594;28;20405;-86
2021/03/06 09:51:42;;;;;;;8.33;4.63;;;;;;;;;;5030352;28;20424;-83
2021/03/06 09:54:08;;;;;;;12.88;5.25;;;;;;;;;;5029540;28;20377;-84
2021/03/06 09:56:34;;;;;;;8.48;3.88;;;;;;;;;;5041215;28;20389;-84
2021/03/06 09:59:04;;;;;;;6.68;3.67;;;;;;;;;;5040014;28;20373;-85
2021/03/06 10:01:31;;;;;;;9.75;4.25;;;;;;;;;;5031576;28;20385;-85
2021/03/06 10:03:57;;;;;;;8.77;4.32;;;;;;;;;;5032068;28;20377;-86
2021/03/06 10:06:24;;;;;;;7.03;3.72;;;;;;;;;;5030002;28;20771;-84
2021/03/06 10:08:53;;;;;;;9.02;4.05;;;;;;;;;;5031874;28;20370;-85
2021/03/06 10:11:20;;;;;;;8.48;4.20;;;;;;;;;;5030300;28;20404;-84
2021/03/06 10:13:50;;;;;;;9.02;4.55;;;;;;;;;;5031461;28;20436;-83
2021/03/06 10:16:16;;;;;;;9.18;4.50;;;;;;;;;;5030599;28;20409;-86
2021/03/06 10:18:42;;;;;;;12.65;4.95;;;;;;;;;;5031417;28;20401;-82
2021/03/06 10:21:12;;;;;;;10.32;4.88;;;;;;;;;;5022063;28;20378;-83
2021/03/06 10:23:38;;;;;;;9.80;4.80;;;;;;;;;;5034214;28;20504;-85
2021/03/06 10:26:11;;;;;;;10.18;4.70;;;;;;;;;;5034058;28;20846;-87
2021/03/06 10:28:37;;;;;;;12.20;5.22;;;;;;;;;;5033302;28;20416;-83
2021/03/06 10:31:03;;;;;;;8.23;4.57;;;;;;;;;;5030067;28;20385;-86
2021/03/06 10:33:40;;;;;;;7.47;4.43;;;;;;;;;;5032872;28;21567;-84
2021/03/06 10:36:21;;;;;;;9.45;5.18;;;;;;;;;;5037573;28;20388;-87
2021/03/06 10:39:19;;;;;;;8.10;4.80;;;;;;;;;;5031132;28;20385;-87
2021/03/06 10:41:55;;;;;;;11.30;5.85;;;;;;;;;;5018092;28;20401;-83
2021/03/06 10:44:59;;;;;;;12.15;6.80;;;;;;;;;;5031656;28;20385;-85
2021/03/06 10:47:25;;;;;;;13.00;7.68;;;;;;;;;;5031673;28;20400;-83
2021/03/06 10:49:52;;;;;;;10.93;6.32;;;;;;;;;;5029206;28;20414;-87
2021/03/06 10:52:36;;;;;;;11.52;6.75;;;;;;;;;;5034962;28;20401;-83
2021/03/06 10:55:46;;;;;;;11.57;6.75;;;;;;;;;;4994876;28;20408;-83
2021/03/06 10:58:34;;;;;;;10.30;7.57;;;;;;;;;;5041825;28;20393;-80
2021/03/06 11:01:02;;;;;;;12.60;7.30;;;;;;;;;;5030752;28;20497;-83
2021/03/06 11:03:38;;;;;;;12.38;7.80;;;;;;;;;;5035473;28;20400;-83
2021/03/06 11:06:04;;;;;;;12.52;7.50;;;;;;;;;;5036151;28;20509;-83
2021/03/06 11:08:32;;;;;;;11.68;7.53;;;;;;;;;;5021630;28;20417;-86
2021/03/06 11:10:58;;;;;;;12.80;7.30;;;;;;;;;;5033312;28;20404;-85
2021/03/06 11:13:39;;;;;;;12.05;7.30;;;;;;;;;;5033364;28;20473;-82
2021/03/06 11:16:06;;;;;;;14.68;7.22;;;;;;;;;;5030571;28;20417;-86
2021/03/06 11:18:45;;;;;;;12.27;6.95;;;;;;;;;;5035462;28;20408;-84
2021/03/06 11:21:14;;;;;;;11.02;6.70;;;;;;;;;;5037390;28;21000;-82
2021/03/06 11:23:41;;;;;;;13.65;8.10;;;;;;;;;;5028703;28;20384;-85
2021/03/06 11:26:07;;;;;;;13.30;7.55;;;;;;;;;;5028062;28;21148;-85
2021/03/06 11:28:33;;;;;;;9.33;6.73;;;;;;;;;;5026345;28;20573;-83
2021/03/06 11:31:00;;;;;;;13.15;7.60;;;;;;;;;;5026032;28;20392;-83
2021/03/06 11:33:27;;;;;;;10.75;7.60;;;;;;;;;;5034365;28;20393;-85
2021/03/06 11:35:54;;;;;;;9.40;6.97;;;;;;;;;;5034068;28;20443;-83
2021/03/06 11:38:22;;;;;;;14.05;7.53;;;;;;;;;;5033073;28;20399;-82
2021/03/06 11:40:50;;;;;;;10.05;6.65;;;;;;;;;;5029030;28;20381;-81
2021/03/06 11:43:16;;;;;;;10.20;6.80;;;;;;;;;;5029055;28;20429;-82
2021/03/06 11:45:43;;;;;;;11.15;7.20;;;;;;;;;;5025858;28;20744;-83
2021/03/06 11:48:10;;;;;;;12.40;7.63;;;;;;;;;;5029600;28;21094;-83
2021/03/06 11:50:40;;;;;;;12.50;8.40;;;;;;;;;;5028062;28;20392;-82
2021/03/06 11:53:06;;;;;;;14.27;8.82;;;;;;;;;;5027034;28;20440;-81
2021/03/06 11:55:33;;;;;;;14.07;9.70;;;;;;;;;;5023629;28;20475;-81
2021/03/06 11:58:05;;;;;;;10.52;7.25;;;;;;;;;;5029822;28;20375;-84
2021/03/06 12:00:32;;;;;;;9.40;6.80;;;;;;;;;;5029338;28;20420;-84
2021/03/06 12:02:59;;;;;;;12.27;7.97;;;;;;;;;;5029753;28;20471;-86
2021/03/06 12:05:25;;;;;;;12.15;7.30;;;;;;;;;;5030700;28;20486;-82
2021/03/06 12:07:52;;;;;;;12.25;7.30;;;;;;;;;;5030437;28;20864;-85
2021/03/06 12:10:19;;;;;;;13.77;7.47;;;;;;;;;;5028648;28;20381;-81
2021/03/06 12:12:46;;;;;;;9.63;6.65;;;;;;;;;;5028880;28;20880;-83
2021/03/06 12:15:17;;;;;;;11.40;7.23;;;;;;;;;;5030339;28;20380;-81
2021/03/06 12:17:44;;;;;;;9.35;6.57;;;;;;;;;;5029825;28;20395;-83
2021/03/06 12:20:11;;;;;;;11.53;7.13;;;;;;;;;;5031046;28;20413;-82
2021/03/06 12:22:37;;;;;;;11.23;6.57;;;;;;;;;;5033376;28;20377;-82
2021/03/06 12:25:05;;;;;;;10.60;6.72;;;;;;;;;;5032343;28;20460;-87
2021/03/06 12:27:31;;;;;;;10.65;6.10;;;;;;;;;;5029804;28;20397;-83
2021/03/06 12:29:57;;;;;;;7.88;5.97;;;;;;;;;;5026260;28;20416;-86
2021/03/06 12:32:23;;;;;;;7.85;5.68;;;;;;;;;;5030773;28;20389;-83
2021/03/06 12:34:50;;;;;;;8.18;5.30;;;;;;;;;;5033261;28;20385;-84
2021/03/06 12:37:17;;;;;;;9.23;5.60;;;;;;;;;;5033853;28;20381;-83
2021/03/06 12:39:43;;;;;;;6.68;4.70;;;;;;;;;;5031241;28;20381;-86
2021/03/06 12:42:09;;;;;;;8.27;5.20;;;;;;;;;;5033836;28;20401;-83
2021/03/06 12:44:35;;;;;;;10.13;5.28;;;;;;;;;;5031061;28;20772;-83
2021/03/06 12:47:01;;;;;;;8.40;4.82;;;;;;;;;;5029041;28;20399;-84
2021/03/06 12:49:28;;;;;;;7.18;4.55;;;;;;;;;;5020868;28;20415;-81
2021/03/06 12:51:54;;;;;;;6.93;4.47;;;;;;;;;;5023503;28;20365;-83
2021/03/06 12:54:22;;;;;;;7.88;4.72;;;;;;;;;;5025770;28;20919;-80
2021/03/06 12:56:48;;;;;;;7.22;4.47;;;;;;;;;;5026573;28;20390;-82
2021/03/06 12:59:40;;;;;;;7.70;4.18;;;;;;;;;;5033279;28;20413;-83
2021/03/06 13:02:06;;;;;;;6.90;4.43;;;;;;;;;;5032434;28;20420;-80
2021/03/06 13:04:57;;;;;;;5.95;4.10;;;;;;;;;;5036156;28;20449;-82
2021/03/06 13:07:33;;;;;;;8.57;3.92;;;;;;;;;;5039698;28;20388;-80
2021/03/06 13:10:31;;;;;;;6.40;3.90;;;;;;;;;;5040834;28;20834;-85
2021/03/06 13:12:57;;;;;;;6.25;3.47;;;;;;;;;;5022754;28;20485;-83
2021/03/06 13:15:23;;;;;;;6.15;3.70;;;;;;;;;;5033313;28;20396;-86
2021/03/06 13:17:49;;;;;;;5.70;3.63;;;;;;;;;;5031225;28;20468;-84
2021/03/06 13:20:15;;;;;;;6.28;3.65;;;;;;;;;;5029357;28;20518;-86
2021/03/06 13:22:41;;;;;;;5.05;3.83;;;;;;;;;;5023279;28;20938;-84
2021/03/06 13:25:08;;;;;;;6.47;3.85;;;;;;;;;;5028592;28;20420;-82
2021/03/06 13:27:34;;;;;;;4.25;3.47;;;;;;;;;;5027302;28;20393;-85
2021/03/06 13:30:00;;;;;;;5.95;3.70;;;;;;;;;;5022334;28;20385;-83
2021/03/06 13:32:26;;;;;;;4.45;3.60;;;;;;;;;;5028907;28;20388;-83
2021/03/06 13:34:52;;;;;;;7.57;4.03;;;;;;;;;;5029972;28;20436;-84
2021/03/06 13:37:19;;;;;;;7.70;3.90;;;;;;;;;;5020111;28;20381;-87
2021/03/06 13:39:45;;;;;;;6.45;3.50;;;;;;;;;;5028240;28;20420;-83
2021/03/06 13:42:11;;;;;;;6.93;4.30;;;;;;;;;;5029158;28;20428;-86
2021/03/06 13:44:39;;;;;;;8.50;4.60;;;;;;;;;;5028905;28;20405;-86
2021/03/06 13:47:05;;;;;;;8.23;4.60;;;;;;;;;;5028961;28;20443;-86
2021/03/06 13:49:31;;;;;;;7.88;4.70;;;;;;;;;;5028845;28;20795;-82
2021/03/06 13:51:57;;;;;;;8.65;4.93;;;;;;;;;;5027756;28;20390;-83
2021/03/06 13:54:23;;;;;;;5.32;4.30;;;;;;;;;;5032305;28;20381;-83
2021/03/06 13:56:49;;;;;;;8.50;5.20;;;;;;;;;;5030717;28;20386;-85
2021/03/06 13:59:18;;;;;;;7.82;5.90;;;;;;;;;;5028417;28;20729;-87
2021/03/06 14:01:44;;;;;;;9.23;5.15;;;;;;;;;;5029088;28;20382;-88
2021/03/06 14:04:10;;;;;;;8.98;5.03;;;;;;;;;;5025568;28;20483;-85
2021/03/06 14:06:37;;;;;;;7.05;5.05;;;;;;;;;;5026341;28;20426;-83
2021/03/06 14:09:03;;;;;;;8.03;5.07;;;;;;;;;;5029111;28;20523;-83
2021/03/06 14:11:29;;;;;;;9.98;4.75;;;;;;;;;;5026534;28;20386;-83
2021/03/06 14:13:56;;;;;;;6.45;4.75;;;;;;;;;;5029088;28;20378;-87
2021/03/06 14:16:22;;;;;;;7.22;4.80;;;;;;;;;;5028871;28;20538;-90
2021/03/06 14:18:48;;;;;;;8.80;4.90;;;;;;;;;;5033936;28;20393;-87
2021/03/06 14:21:14;;;;;;;7.20;4.85;;;;;;;;;;5031023;28;20405;-85
2021/03/06 14:23:40;;;;;;;8.63;5.55;;;;;;;;;;5030278;28;20473;-83
2021/03/06 14:26:06;;;;;;;9.52;5.13;;;;;;;;;;5027981;28;20777;-86
2021/03/06 14:28:32;;;;;;;7.38;4.68;;;;;;;;;;5029796;28;20464;-84
2021/03/06 14:30:58;;;;;;;7.83;5.47;;;;;;;;;;5029365;28;20389;-86
2021/03/06 14:33:27;;;;;;;9.77;4.80;;;;;;;;;;5029436;28;20795;-86
2021/03/06 14:35:53;;;;;;;9.75;5.45;;;;;;;;;;5027674;28;20443;-86
2021/03/06 14:38:19;;;;;;;9.85;5.18;;;;;;;;;;5029196;28;20413;-85
2021/03/06 14:40:45;;;;;;;8.73;5.10;;;;;;;;;;5027901;28;20434;-87